createdAt,value
2023-04-06T00:00:50.464Z,4.90
2023-04-06T00:03:17.537Z,8.60
2023-04-06T00:05:44.343Z,6.77
2023-04-06T00:08:11.644Z,8.27
2023-04-06T00:10:38.320Z,8.20
2023-04-06T00:13:06.371Z,6.97
2023-04-06T00:15:33.045Z,6.50
2023-04-06T00:17:59.783Z,5.13
2023-04-06T00:20:26.556Z,6.47
2023-04-06T00:22:53.243Z,6.83
2023-04-06T00:25:19.815Z,7.70
2023-04-06T00:27:46.402Z,7.97
2023-04-06T00:30:13.130Z,7.57
2023-04-06T00:32:39.736Z,8.77
2023-04-06T00:35:06.993Z,5.80
2023-04-06T00:37:33.832Z,5.00
2023-04-06T00:40:01.478Z,5.77
2023-04-06T00:42:28.077Z,5.97
2023-04-06T00:45:00.265Z,6.23
2023-04-06T00:47:27.366Z,8.00
2023-04-06T00:49:55.438Z,7.37
2023-04-06T00:52:22.501Z,7.37
2023-04-06T00:54:51.306Z,4.40
2023-04-06T00:57:20.690Z,7.60
2023-04-06T00:59:54.016Z,6.93
2023-04-06T01:02:20.956Z,6.47
2023-04-06T01:04:50.628Z,6.13
2023-04-06T01:07:26.814Z,6.87
2023-04-06T01:10:06.161Z,7.57
2023-04-06T01:12:35.285Z,6.00
2023-04-06T01:15:07.247Z,10.53
2023-04-06T01:17:36.227Z,5.13
2023-04-06T01:20:10.175Z,7.93
2023-04-06T01:22:37.916Z,6.27
2023-04-06T01:25:05.020Z,7.07
2023-04-06T01:27:38.079Z,10.60
2023-04-06T01:30:20.619Z,5.90
2023-04-06T01:32:51.635Z,4.97
2023-04-06T01:35:28.284Z,7.33
2023-04-06T01:38:03.587Z,6.90
2023-04-06T01:40:35.477Z,5.90
2023-04-06T01:43:02.547Z,6.63
2023-04-06T01:45:35.411Z,7.80
2023-04-06T01:48:12.270Z,8.90
2023-04-06T01:50:39.002Z,4.80
2023-04-06T01:53:06.882Z,8.73
2023-04-06T01:55:34.485Z,8.97
2023-04-06T01:58:22.006Z,8.60
2023-04-06T02:00:48.794Z,7.13
2023-04-06T02:03:16.400Z,7.03
2023-04-06T02:05:45.179Z,8.23
2023-04-06T02:08:24.555Z,8.80
2023-04-06T02:10:51.487Z,4.40
2023-04-06T02:13:27.521Z,6.77
2023-04-06T02:15:55.546Z,8.73
2023-04-06T02:18:22.247Z,6.97
2023-04-06T02:20:48.960Z,5.27
2023-04-06T02:23:15.919Z,6.03
2023-04-06T02:25:42.638Z,7.57
2023-04-06T02:28:09.312Z,6.80
2023-04-06T02:30:35.950Z,8.77
2023-04-06T02:33:03.144Z,7.20
2023-04-06T02:35:37.195Z,8.57
2023-04-06T02:38:03.908Z,5.77
2023-04-06T02:40:30.523Z,5.57
2023-04-06T02:43:00.240Z,7.10
2023-04-06T02:45:31.134Z,8.80
2023-04-06T02:48:01.012Z,6.07
2023-04-06T02:50:28.320Z,9.10
2023-04-06T02:53:00.502Z,5.93
2023-04-06T02:55:27.246Z,7.10
2023-04-06T02:57:53.971Z,6.57
2023-04-06T03:00:25.810Z,5.30
2023-04-06T03:02:52.561Z,6.80
2023-04-06T03:05:19.629Z,7.83
2023-04-06T03:07:47.559Z,8.97
2023-04-06T03:10:22.014Z,6.00
2023-04-06T03:12:49.613Z,6.57
2023-04-06T03:15:22.823Z,6.47
2023-04-06T03:17:54.736Z,6.73
2023-04-06T03:20:39.960Z,7.40
2023-04-06T03:23:06.984Z,6.87
2023-04-06T03:25:37.884Z,6.63
2023-04-06T03:28:06.892Z,6.40
2023-04-06T03:30:38.493Z,7.80
2023-04-06T03:33:05.934Z,7.93
2023-04-06T03:35:38.641Z,5.83
2023-04-06T03:38:05.932Z,5.60
2023-04-06T03:40:32.681Z,11.13
2023-04-06T03:42:59.438Z,6.97
2023-04-06T03:45:26.142Z,8.53
2023-04-06T03:47:52.805Z,6.77
2023-04-06T03:50:20.411Z,6.37
2023-04-06T03:52:47.015Z,8.67
2023-04-06T03:55:13.673Z,8.03
2023-04-06T03:57:40.499Z,10.03
2023-04-06T04:00:07.847Z,7.43
2023-04-06T04:02:41.274Z,6.70
2023-04-06T04:05:08.254Z,8.53
2023-04-06T04:07:36.439Z,9.00
2023-04-06T04:10:03.829Z,7.77
2023-04-06T04:12:32.097Z,6.73
2023-04-06T04:14:59.466Z,11.13
2023-04-06T04:17:26.705Z,9.07
2023-04-06T04:19:53.353Z,7.93
2023-04-06T04:22:20.213Z,6.83
2023-04-06T04:24:47.046Z,9.43
2023-04-06T04:27:13.656Z,6.10
2023-04-06T04:29:41.135Z,8.40
2023-04-06T04:32:11.227Z,6.97
2023-04-06T04:34:41.044Z,6.77
2023-04-06T04:37:10.162Z,6.20
2023-04-06T04:39:53.038Z,10.27
2023-04-06T04:42:19.650Z,8.97
2023-04-06T04:44:50.966Z,7.77
2023-04-06T04:47:28.474Z,6.47
2023-04-06T04:49:55.316Z,9.47
2023-04-06T04:52:24.286Z,10.90
2023-04-06T04:55:11.276Z,8.50
2023-04-06T04:57:37.986Z,8.87
2023-04-06T05:00:06.792Z,12.23
2023-04-06T05:02:35.883Z,12.70
2023-04-06T05:05:16.319Z,9.80
2023-04-06T05:07:43.288Z,7.67
2023-04-06T05:10:16.572Z,7.43
2023-04-06T05:12:52.841Z,11.47
2023-04-06T05:15:19.506Z,7.03
2023-04-06T05:17:47.370Z,9.70
2023-04-06T05:20:18.912Z,7.70
2023-04-06T05:22:49.368Z,9.17
2023-04-06T05:25:16.448Z,14.07
2023-04-06T05:27:43.696Z,10.13
2023-04-06T05:30:26.469Z,5.90
2023-04-06T05:32:53.493Z,7.80
2023-04-06T05:35:21.425Z,8.67
2023-04-06T05:37:51.654Z,6.87
2023-04-06T05:40:22.082Z,8.23
2023-04-06T05:42:50.389Z,6.67
2023-04-06T05:45:19.942Z,8.17
2023-04-06T05:47:51.890Z,9.80
2023-04-06T05:50:23.809Z,10.20
2023-04-06T05:52:51.284Z,6.80
2023-04-06T05:55:21.018Z,8.37
2023-04-06T05:57:53.637Z,16.73
2023-04-06T06:00:21.882Z,7.57
2023-04-06T06:02:58.798Z,10.17
2023-04-06T06:05:30.015Z,7.33
2023-04-06T06:08:03.091Z,9.53
2023-04-06T06:10:30.470Z,9.00
2023-04-06T06:12:57.385Z,8.87
2023-04-06T06:15:24.601Z,13.37
2023-04-06T06:17:52.853Z,11.97
2023-04-06T06:20:19.603Z,9.67
2023-04-06T06:22:47.896Z,7.60
2023-04-06T06:25:18.694Z,10.43
2023-04-06T06:27:47.393Z,8.67
2023-04-06T06:30:16.425Z,7.23
2023-04-06T06:32:44.581Z,7.93
2023-04-06T06:35:11.469Z,7.23
2023-04-06T06:37:38.822Z,10.97
2023-04-06T06:40:07.665Z,10.20
2023-04-06T06:42:35.680Z,6.13
2023-04-06T06:45:26.429Z,8.50
2023-04-06T06:47:55.030Z,6.60
2023-04-06T06:50:22.438Z,7.27
2023-04-06T06:52:49.267Z,7.67
2023-04-06T06:55:16.343Z,8.60
2023-04-06T06:57:47.230Z,8.13
2023-04-06T07:00:15.352Z,7.63
2023-04-06T07:02:43.556Z,7.03
2023-04-06T07:05:24.354Z,5.77
2023-04-06T07:07:54.962Z,6.23
2023-04-06T07:10:21.698Z,12.87
2023-04-06T07:12:48.496Z,8.27
2023-04-06T07:15:15.399Z,6.97
2023-04-06T07:17:42.451Z,9.17
2023-04-06T07:20:09.743Z,11.13
2023-04-06T07:22:36.500Z,10.13
2023-04-06T07:25:03.348Z,7.70
2023-04-06T07:27:29.941Z,9.27
2023-04-06T07:29:56.764Z,14.20
2023-04-06T07:32:26.940Z,6.70
2023-04-06T07:34:54.095Z,8.93
2023-04-06T07:37:21.000Z,8.07
2023-04-06T07:39:48.445Z,9.33
2023-04-06T07:42:15.640Z,7.73
2023-04-06T07:44:43.187Z,10.27
2023-04-06T07:47:11.570Z,6.37
2023-04-06T07:49:38.269Z,6.47
2023-04-06T07:52:05.595Z,10.67
2023-04-06T07:54:33.302Z,5.60
2023-04-06T07:56:59.919Z,8.77
2023-04-06T07:59:26.680Z,7.70
2023-04-06T08:01:53.375Z,8.37
2023-04-06T08:04:21.295Z,8.87
2023-04-06T08:06:47.962Z,6.97
2023-04-06T08:09:14.573Z,12.43
2023-04-06T08:11:41.367Z,8.03
2023-04-06T08:14:08.257Z,8.00
2023-04-06T08:16:34.968Z,8.53
2023-04-06T08:19:01.565Z,10.97
2023-04-06T08:21:28.193Z,6.20
2023-04-06T08:23:54.941Z,6.13
2023-04-06T08:26:21.893Z,13.20
2023-04-06T08:28:48.505Z,6.93
2023-04-06T08:31:15.160Z,10.93
2023-04-06T08:33:42.380Z,6.70
2023-04-06T08:36:16.045Z,4.73
2023-04-06T08:38:43.891Z,7.67
2023-04-06T08:41:11.847Z,12.83
2023-04-06T08:43:49.899Z,8.10
2023-04-06T08:46:17.206Z,8.90
2023-04-06T08:48:44.423Z,7.03
2023-04-06T08:51:11.523Z,6.93
2023-04-06T08:53:39.302Z,9.67
2023-04-06T08:56:06.593Z,7.23
2023-04-06T08:58:40.052Z,8.13
2023-04-06T09:01:11.481Z,8.50
2023-04-06T09:03:41.051Z,5.90
2023-04-06T09:06:09.224Z,8.57
2023-04-06T09:08:36.577Z,5.63
2023-04-06T09:11:04.160Z,5.90
2023-04-06T09:13:31.341Z,6.53
2023-04-06T09:16:07.069Z,7.67
2023-04-06T09:18:34.466Z,9.30
2023-04-06T09:21:07.171Z,7.97
2023-04-06T09:23:34.280Z,7.27
2023-04-06T09:26:14.387Z,8.27
2023-04-06T09:28:49.044Z,5.77
2023-04-06T09:31:17.661Z,5.97
2023-04-06T09:33:46.636Z,7.90
2023-04-06T09:36:14.571Z,7.87
2023-04-06T09:38:56.733Z,8.77
2023-04-06T09:41:28.226Z,9.93
2023-04-06T09:44:04.933Z,8.80
2023-04-06T09:46:43.401Z,5.93
2023-04-06T09:49:19.521Z,8.50
2023-04-06T09:51:49.693Z,21.00
2023-04-06T09:54:22.915Z,4.07
2023-04-06T09:56:58.253Z,6.53
2023-04-06T09:59:48.451Z,7.30
2023-04-06T10:02:54.010Z,5.87
2023-04-06T10:05:23.723Z,3.93
2023-04-06T10:08:00.252Z,4.50
2023-04-06T10:10:29.013Z,4.63
2023-04-06T10:12:56.691Z,4.27
2023-04-06T10:15:23.533Z,3.87
2023-04-06T10:17:50.482Z,8.33
2023-04-06T10:20:23.179Z,5.40
2023-04-06T10:22:58.039Z,5.67
2023-04-06T10:25:32.785Z,5.67
2023-04-06T10:28:10.276Z,6.47
2023-04-06T10:30:43.182Z,7.27
2023-04-06T10:33:20.759Z,6.80
2023-04-06T10:35:47.791Z,5.63
2023-04-06T10:38:15.278Z,4.30
2023-04-06T10:40:48.023Z,4.53
2023-04-06T10:43:20.064Z,4.80
2023-04-06T10:45:56.338Z,5.23
2023-04-06T10:48:23.161Z,7.67
2023-04-06T10:50:51.744Z,6.97
2023-04-06T10:53:36.577Z,7.73
2023-04-06T10:56:04.865Z,7.30
2023-04-06T10:58:31.786Z,4.50
2023-04-06T11:00:58.624Z,7.30
2023-04-06T11:03:25.357Z,6.63
2023-04-06T11:05:52.430Z,5.43
2023-04-06T11:08:33.272Z,7.83
2023-04-06T11:11:17.124Z,6.00
2023-04-06T11:13:44.879Z,6.00
2023-04-06T11:16:19.358Z,5.67
2023-04-06T11:18:56.941Z,8.33
2023-04-06T11:21:40.683Z,5.53
2023-04-06T11:24:17.960Z,9.10
2023-04-06T11:26:51.707Z,5.87
2023-04-06T11:29:22.675Z,7.87
2023-04-06T11:31:54.400Z,8.33
2023-04-06T11:34:25.963Z,7.23
2023-04-06T11:36:58.233Z,8.67
2023-04-06T11:39:26.570Z,8.67
2023-04-06T11:41:59.762Z,6.27
2023-04-06T11:44:32.820Z,7.53
2023-04-06T11:46:59.785Z,8.83
2023-04-06T11:49:30.462Z,7.13
2023-04-06T11:51:58.269Z,7.40
2023-04-06T11:54:32.434Z,7.90
2023-04-06T11:56:59.060Z,9.97
2023-04-06T11:59:25.717Z,6.80
2023-04-06T12:01:54.060Z,7.77
2023-04-06T12:04:21.493Z,6.93
2023-04-06T12:06:49.048Z,8.47
2023-04-06T12:09:18.431Z,6.63
2023-04-06T12:11:45.244Z,8.60
2023-04-06T12:14:12.496Z,7.70
2023-04-06T12:16:39.331Z,6.77
2023-04-06T12:19:06.170Z,6.10
2023-04-06T12:21:34.008Z,8.57
2023-04-06T12:24:01.588Z,8.37
2023-04-06T12:26:28.851Z,8.37
2023-04-06T12:28:55.557Z,7.30
2023-04-06T12:31:23.600Z,6.97
2023-04-06T12:33:51.380Z,6.80
2023-04-06T12:36:22.401Z,7.03
2023-04-06T12:38:49.687Z,6.50
2023-04-06T12:41:16.746Z,9.57
2023-04-06T12:43:44.672Z,7.07
2023-04-06T12:46:11.841Z,11.03
2023-04-06T12:48:38.930Z,7.03
2023-04-06T12:51:06.744Z,7.50
2023-04-06T12:53:34.320Z,10.53
2023-04-06T12:56:01.901Z,7.57
2023-04-06T12:58:29.173Z,8.03
2023-04-06T13:00:58.465Z,7.70
2023-04-06T13:03:25.310Z,7.60
2023-04-06T13:05:52.169Z,7.43
2023-04-06T13:08:20.278Z,9.97
2023-04-06T13:10:54.411Z,6.93
2023-04-06T13:13:25.964Z,7.33
2023-04-06T13:15:53.591Z,8.13
2023-04-06T13:18:20.557Z,9.63
2023-04-06T13:20:48.604Z,8.43
2023-04-06T13:23:15.609Z,13.20
2023-04-06T13:25:42.497Z,9.07
2023-04-06T13:28:10.874Z,8.37
2023-04-06T13:30:37.835Z,14.00
2023-04-06T13:33:05.621Z,11.40
2023-04-06T13:35:32.363Z,6.80
2023-04-06T13:37:59.100Z,6.83
2023-04-06T13:40:26.018Z,10.07
2023-04-06T13:42:52.863Z,11.60
2023-04-06T13:45:19.455Z,8.93
2023-04-06T13:47:46.423Z,7.63
2023-04-06T13:50:13.076Z,8.87
2023-04-06T13:52:39.723Z,7.20
2023-04-06T13:55:06.666Z,7.20
2023-04-06T13:57:33.306Z,9.60
2023-04-06T13:59:59.873Z,7.20
2023-04-06T14:02:28.381Z,7.83
2023-04-06T14:04:55.459Z,8.03
2023-04-06T14:07:24.498Z,10.03
2023-04-06T14:09:51.293Z,7.23
2023-04-06T14:12:17.918Z,8.90
2023-04-06T14:14:44.488Z,7.63
2023-04-06T14:17:11.081Z,9.33
2023-04-06T14:19:38.565Z,8.63
2023-04-06T14:22:05.735Z,7.00
2023-04-06T14:24:32.440Z,8.60
2023-04-06T14:27:00.179Z,9.20
2023-04-06T14:29:26.934Z,7.07
2023-04-06T14:31:53.566Z,7.53
2023-04-06T14:34:20.424Z,7.30
2023-04-06T14:36:47.177Z,7.87
2023-04-06T14:39:13.828Z,6.77
2023-04-06T14:41:40.488Z,8.20
2023-04-06T14:44:07.393Z,6.87
2023-04-06T14:46:34.220Z,8.43
2023-04-06T14:49:00.909Z,8.73
2023-04-06T14:51:30.686Z,9.47
2023-04-06T14:53:57.712Z,9.47
2023-04-06T14:56:25.092Z,7.70
2023-04-06T14:58:52.345Z,8.90
2023-04-06T15:01:22.011Z,10.97
2023-04-06T15:03:49.278Z,7.37
2023-04-06T15:06:17.225Z,7.83
2023-04-06T15:08:44.722Z,7.03
2023-04-06T15:11:12.380Z,7.00
2023-04-06T15:13:39.746Z,7.17
2023-04-06T15:16:07.346Z,8.30
2023-04-06T15:18:36.963Z,7.87
2023-04-06T15:21:03.749Z,7.43
2023-04-06T15:23:30.739Z,6.80
2023-04-06T15:25:58.576Z,7.03
2023-04-06T15:28:25.312Z,12.00
2023-04-06T15:30:52.018Z,7.07
2023-04-06T15:33:21.102Z,7.07
2023-04-06T15:35:47.928Z,14.67
2023-04-06T15:38:15.736Z,9.53
2023-04-06T15:40:47.186Z,7.73
2023-04-06T15:43:14.248Z,7.33
2023-04-06T15:45:41.685Z,12.07
2023-04-06T15:48:09.136Z,9.30
2023-04-06T15:50:36.569Z,8.40
2023-04-06T15:53:03.285Z,6.17
2023-04-06T15:55:30.151Z,6.83
2023-04-06T15:57:56.808Z,12.67
2023-04-06T16:00:23.611Z,6.30
2023-04-06T16:02:50.438Z,11.77
2023-04-06T16:05:17.156Z,6.83
2023-04-06T16:07:43.770Z,5.87
2023-04-06T16:10:11.647Z,10.07
2023-04-06T16:12:39.991Z,8.03
2023-04-06T16:15:07.312Z,6.97
2023-04-06T16:17:34.090Z,7.30
2023-04-06T16:20:00.845Z,8.87
2023-04-06T16:22:28.684Z,12.87
2023-04-06T16:24:55.500Z,7.73
2023-04-06T16:27:22.121Z,8.20
2023-04-06T16:29:48.726Z,7.03
2023-04-06T16:32:15.487Z,7.27
2023-04-06T16:34:42.216Z,9.67
2023-04-06T16:37:08.962Z,6.97
2023-04-06T16:39:36.340Z,7.27
2023-04-06T16:42:03.070Z,8.97
2023-04-06T16:44:29.855Z,10.50
2023-04-06T16:46:56.445Z,7.33
2023-04-06T16:49:23.137Z,7.60
2023-04-06T16:51:49.860Z,6.90
2023-04-06T16:54:16.732Z,7.47
2023-04-06T16:56:43.458Z,8.17
2023-04-06T16:59:10.643Z,8.83
2023-04-06T17:01:37.582Z,7.33
2023-04-06T17:04:04.325Z,6.60
2023-04-06T17:06:31.196Z,7.80
2023-04-06T17:08:59.615Z,7.63
2023-04-06T17:11:32.657Z,10.33
2023-04-06T17:14:02.693Z,11.47
2023-04-06T17:16:29.455Z,7.63
2023-04-06T17:18:57.215Z,8.53
2023-04-06T17:21:23.869Z,7.53
2023-04-06T17:28:16.127Z,7.57
2023-04-06T17:30:43.152Z,9.57
2023-04-06T17:33:10.125Z,9.10
2023-04-06T17:35:36.811Z,11.20
2023-04-06T17:38:03.466Z,8.57
2023-04-06T17:40:30.240Z,9.10
2023-04-06T17:42:56.829Z,7.70
2023-04-06T17:45:23.424Z,7.17
2023-04-06T17:47:50.226Z,9.60
2023-04-06T17:50:16.922Z,7.47
2023-04-06T17:55:15.601Z,7.27
2023-04-06T17:57:46.444Z,11.07
2023-04-06T18:00:15.634Z,8.40
2023-04-06T18:02:42.730Z,9.23
2023-04-06T18:05:09.683Z,8.77
2023-04-06T18:07:36.920Z,7.93
2023-04-06T18:10:03.717Z,12.87
2023-04-06T18:12:30.359Z,7.23
2023-04-06T18:14:57.013Z,8.90
2023-04-06T18:17:23.708Z,8.37
2023-04-06T18:19:50.318Z,7.33
2023-04-06T18:22:17.407Z,8.27
2023-04-06T18:24:44.086Z,6.80
2023-04-06T18:27:12.752Z,6.90
2023-04-06T18:29:40.415Z,11.07
2023-04-06T18:32:07.093Z,9.47
2023-04-06T18:34:35.190Z,7.40
2023-04-06T18:37:02.054Z,8.63
2023-04-06T18:39:28.826Z,8.33
2023-04-06T18:41:55.922Z,10.30
2023-04-06T18:44:22.570Z,9.60
2023-04-06T18:46:49.906Z,11.00
2023-04-06T18:49:17.683Z,8.70
2023-04-06T18:51:44.353Z,10.70
2023-04-06T18:54:11.012Z,10.50
2023-04-06T18:56:38.366Z,10.20
2023-04-06T18:59:04.996Z,9.47
2023-04-06T19:01:32.678Z,13.43
2023-04-06T19:04:00.408Z,9.37
2023-04-06T19:06:27.904Z,11.40
2023-04-06T19:08:55.127Z,10.83
2023-04-06T19:11:24.791Z,15.37
2023-04-06T19:13:52.688Z,17.20
2023-04-06T19:16:19.383Z,20.20
2023-04-06T19:18:46.185Z,17.67
2023-04-06T19:21:23.705Z,18.40
2023-04-06T19:23:54.371Z,19.97
2023-04-06T19:26:22.767Z,24.00
2023-04-06T19:28:49.447Z,20.93
2023-04-06T19:31:18.017Z,20.33
2023-04-06T19:33:45.831Z,17.83
2023-04-06T19:36:12.658Z,13.27
2023-04-06T19:38:40.181Z,16.43
2023-04-06T19:41:10.699Z,14.93
2023-04-06T19:43:37.430Z,13.77
2023-04-06T19:46:04.799Z,12.63
2023-04-06T19:48:33.656Z,12.37
2023-04-06T19:51:00.473Z,14.03
2023-04-06T19:53:28.144Z,10.60
2023-04-06T19:55:54.922Z,11.07
2023-04-06T19:58:21.661Z,9.37
2023-04-06T20:00:48.350Z,10.17
2023-04-06T20:03:15.161Z,8.90
2023-04-06T20:05:41.984Z,10.30
2023-04-06T20:08:08.935Z,10.10
2023-04-06T20:10:35.764Z,15.13
2023-04-06T20:13:02.501Z,10.40
2023-04-06T20:15:29.865Z,17.17
2023-04-06T20:17:56.788Z,13.17
2023-04-06T20:20:23.623Z,13.90
2023-04-06T20:22:50.436Z,12.03
2023-04-06T20:25:17.942Z,10.20
2023-04-06T20:27:45.479Z,10.57
2023-04-06T20:30:16.725Z,11.27
2023-04-06T20:32:43.726Z,13.67
2023-04-06T20:35:10.581Z,10.97
2023-04-06T20:37:37.785Z,10.60
2023-04-06T20:40:05.335Z,11.57
2023-04-06T20:42:32.054Z,10.70
2023-04-06T20:44:59.414Z,10.83
2023-04-06T20:47:27.157Z,11.87
2023-04-06T20:49:53.977Z,11.10
2023-04-06T20:52:20.668Z,14.93
2023-04-06T20:54:48.407Z,16.43
2023-04-06T20:57:15.353Z,14.03
2023-04-06T20:59:42.254Z,12.27
2023-04-06T21:02:09.122Z,12.03
2023-04-06T21:04:36.450Z,11.40
2023-04-06T21:07:04.784Z,12.70
2023-04-06T21:09:31.826Z,10.73
2023-04-06T21:11:58.445Z,12.03
2023-04-06T21:14:26.468Z,11.27
2023-04-06T21:16:55.677Z,12.20
2023-04-06T21:19:22.977Z,11.97
2023-04-06T21:21:50.051Z,12.70
2023-04-06T21:24:17.227Z,12.20
2023-04-06T21:26:44.062Z,14.07
2023-04-06T21:29:10.849Z,11.23
2023-04-06T21:31:41.201Z,12.33
2023-04-06T21:34:14.547Z,14.77
2023-04-06T21:36:41.930Z,12.27
2023-04-06T21:39:08.882Z,11.80
2023-04-06T21:41:35.752Z,13.93
2023-04-06T21:44:02.475Z,12.67
2023-04-06T21:46:29.124Z,13.07
2023-04-06T21:48:55.937Z,12.10
2023-04-06T21:51:23.352Z,11.00
2023-04-06T21:53:51.538Z,19.73
2023-04-06T21:56:23.159Z,19.83
2023-04-06T21:58:50.793Z,14.50
2023-04-06T22:01:18.015Z,12.70
2023-04-06T22:03:46.332Z,13.80
2023-04-06T22:06:13.483Z,12.67
2023-04-06T22:08:40.282Z,13.20
2023-04-06T22:11:09.266Z,13.53
2023-04-06T22:13:36.276Z,15.20
2023-04-06T22:16:04.042Z,31.03
2023-04-06T22:18:31.136Z,22.23
2023-04-06T22:20:58.049Z,29.27
2023-04-06T22:23:25.413Z,42.47
2023-04-06T22:25:52.728Z,39.17
2023-04-06T22:28:19.448Z,38.70
2023-04-06T22:30:46.051Z,31.13
2023-04-06T22:33:12.808Z,20.30
2023-04-06T22:35:40.577Z,15.53
2023-04-06T22:38:07.361Z,17.27
2023-04-06T22:40:34.079Z,12.67
2023-04-06T22:43:00.806Z,12.37
2023-04-06T22:45:27.528Z,10.13
2023-04-06T22:47:54.201Z,10.20
2023-04-06T22:50:22.424Z,11.33
2023-04-06T22:52:49.077Z,13.50
2023-04-06T22:55:15.755Z,13.83
2023-04-06T22:57:42.476Z,43.83
2023-04-06T23:00:09.943Z,32.00
2023-04-06T23:02:36.700Z,32.70
2023-04-06T23:05:03.553Z,14.47
2023-04-06T23:07:32.423Z,14.57
2023-04-06T23:09:59.557Z,18.53
2023-04-06T23:12:26.301Z,20.30
2023-04-06T23:14:53.032Z,14.03
2023-04-06T23:17:19.692Z,16.57
2023-04-06T23:19:46.319Z,10.50
2023-04-06T23:22:13.091Z,10.27
2023-04-06T23:24:39.744Z,13.33
2023-04-06T23:27:06.488Z,9.77
2023-04-06T23:29:33.139Z,12.63
2023-04-06T23:31:59.788Z,9.13
2023-04-06T23:34:27.023Z,9.57
2023-04-06T23:36:54.880Z,12.07
2023-04-06T23:39:21.569Z,10.43
2023-04-06T23:41:48.156Z,9.20
2023-04-06T23:44:14.795Z,10.33
2023-04-06T23:46:41.491Z,9.13
2023-04-06T23:49:08.178Z,9.00
2023-04-06T23:51:34.772Z,11.13
2023-04-06T23:54:01.421Z,9.53
2023-04-06T23:56:28.010Z,8.77
2023-04-06T23:58:54.757Z,9.13
